createdAt,value
2018-02-27T00:00:32.422Z,0.8
2018-02-27T00:01:35.151Z,0.8
2018-02-27T00:02:37.570Z,0.9
2018-02-27T00:03:39.984Z,0.9
2018-02-27T00:04:42.399Z,0.9
2018-02-27T00:05:45.387Z,0.9
2018-02-27T00:06:47.789Z,0.9
2018-02-27T00:07:50.213Z,0.9
2018-02-27T00:08:52.623Z,0.9
2018-02-27T00:09:55.040Z,0.9
2018-02-27T00:10:57.464Z,0.9
2018-02-27T00:12:00.178Z,1
2018-02-27T00:13:02.881Z,1
2018-02-27T00:14:05.299Z,1
2018-02-27T00:15:07.706Z,1
2018-02-27T00:16:10.128Z,1
2018-02-27T00:17:12.824Z,0.9
2018-02-27T00:18:15.237Z,1
2018-02-27T00:19:17.937Z,0.9
2018-02-27T00:20:20.353Z,0.9
2018-02-27T00:21:22.762Z,0.9
2018-02-27T00:22:25.189Z,0.9
2018-02-27T00:23:27.592Z,0.9
2018-02-27T00:24:30.006Z,0.9
2018-02-27T00:25:32.424Z,0.9
2018-02-27T00:26:34.837Z,0.9
2018-02-27T00:27:37.256Z,0.9
2018-02-27T00:28:39.667Z,0.9
2018-02-27T00:29:42.078Z,0.9
2018-02-27T00:30:44.762Z,0.9
2018-02-27T00:31:47.171Z,0.9
2018-02-27T00:32:49.592Z,0.8
2018-02-27T00:33:52.004Z,0.8
2018-02-27T00:34:54.425Z,0.8
2018-02-27T00:35:56.837Z,0.8
2018-02-27T00:36:59.254Z,0.8
2018-02-27T00:38:01.965Z,0.8
2018-02-27T00:39:04.667Z,0.8
2018-02-27T00:40:07.070Z,0.8
2018-02-27T00:41:09.779Z,0.8
2018-02-27T00:42:12.473Z,0.8
2018-02-27T00:43:14.885Z,0.8
2018-02-27T00:44:17.579Z,0.8
2018-02-27T00:45:19.991Z,0.8
2018-02-27T00:46:22.406Z,0.8
2018-02-27T00:47:24.823Z,0.8
2018-02-27T00:48:27.238Z,0.8
2018-02-27T00:49:29.645Z,0.8
2018-02-27T00:50:32.350Z,0.8
2018-02-27T00:51:34.783Z,0.8
2018-02-27T00:52:37.170Z,0.8
2018-02-27T00:53:39.580Z,0.8
2018-02-27T00:54:41.999Z,0.8
2018-02-27T00:55:44.412Z,0.8
2018-02-27T00:56:46.839Z,0.8
2018-02-27T00:57:49.249Z,0.8
2018-02-27T00:58:51.662Z,0.8
2018-02-27T00:59:54.077Z,0.8
2018-02-27T01:00:56.484Z,0.8
2018-02-27T01:01:58.890Z,0.8
2018-02-27T01:03:01.312Z,0.8
2018-02-27T01:04:03.736Z,0.8
2018-02-27T01:05:06.151Z,0.8
2018-02-27T01:06:08.551Z,0.8
2018-02-27T01:07:10.974Z,0.9
2018-02-27T01:08:13.388Z,0.9
2018-02-27T01:09:15.801Z,0.9
2018-02-27T01:10:18.219Z,1
2018-02-27T01:11:20.634Z,1.1
2018-02-27T01:12:23.043Z,1.1
2018-02-27T01:13:25.520Z,1.1
2018-02-27T01:14:27.872Z,1.1
2018-02-27T01:15:30.293Z,1.1
2018-02-27T01:16:32.707Z,1.2
2018-02-27T01:17:35.116Z,1.2
2018-02-27T01:18:37.538Z,1.2
2018-02-27T01:19:39.953Z,1.2
2018-02-27T01:20:42.362Z,1.3
2018-02-27T01:21:44.781Z,1.3
2018-02-27T01:22:47.185Z,1.3
2018-02-27T01:23:49.601Z,1.3
2018-02-27T01:24:52.025Z,1.4
2018-02-27T01:25:54.449Z,1.4
2018-02-27T01:26:56.851Z,1.4
2018-02-27T01:27:59.264Z,1.4
2018-02-27T01:29:01.692Z,1.4
2018-02-27T01:30:04.100Z,1.4
2018-02-27T01:31:07.095Z,1.4
2018-02-27T01:32:09.519Z,1.4
2018-02-27T01:33:11.930Z,1.4
2018-02-27T01:34:14.349Z,1.4
2018-02-27T01:35:16.768Z,1.4
2018-02-27T01:36:19.467Z,1.5
2018-02-27T01:37:22.167Z,1.5
2018-02-27T01:38:24.581Z,1.5
2018-02-27T01:39:27.000Z,1.5
2018-02-27T01:40:29.408Z,1.5
2018-02-27T01:41:31.821Z,1.5
2018-02-27T01:42:34.237Z,1.5
2018-02-27T01:43:36.655Z,1.6
2018-02-27T01:44:39.070Z,1.6
2018-02-27T01:45:41.489Z,1.6
2018-02-27T01:46:43.901Z,1.6
2018-02-27T01:47:46.321Z,1.7
2018-02-27T01:48:48.732Z,1.7
2018-02-27T01:49:51.150Z,1.7
2018-02-27T01:50:53.859Z,1.7
2018-02-27T01:51:56.271Z,1.7
2018-02-27T01:52:58.968Z,1.7
2018-02-27T01:54:01.380Z,1.8
2018-02-27T01:55:04.085Z,1.8
2018-02-27T01:56:06.512Z,1.8
2018-02-27T01:57:08.926Z,1.8
2018-02-27T01:58:11.332Z,1.8
2018-02-27T01:59:13.751Z,1.9
2018-02-27T02:00:16.172Z,1.9
2018-02-27T02:01:18.579Z,1.9
2018-02-27T02:02:21.281Z,1.9
2018-02-27T02:03:23.710Z,1.9
2018-02-27T02:04:26.124Z,1.9
2018-02-27T02:05:28.540Z,1.9
2018-02-27T02:06:31.239Z,1.8
2018-02-27T02:07:33.653Z,1.9
2018-02-27T02:08:36.071Z,1.9
2018-02-27T02:09:38.488Z,1.9
2018-02-27T02:10:40.894Z,1.9
2018-02-27T02:11:43.306Z,1.9
2018-02-27T02:12:45.735Z,1.9
2018-02-27T02:13:48.149Z,1.9
2018-02-27T02:14:50.569Z,1.9
2018-02-27T02:15:53.268Z,1.9
2018-02-27T02:16:55.685Z,1.8
2018-02-27T02:17:58.390Z,1.8
2018-02-27T02:19:00.806Z,1.9
2018-02-27T02:20:03.216Z,1.9
2018-02-27T02:21:05.634Z,1.9
2018-02-27T02:22:08.043Z,1.9
2018-02-27T02:23:10.460Z,1.9
2018-02-27T02:24:12.882Z,1.9
2018-02-27T02:25:15.595Z,1.9
2018-02-27T02:26:18.291Z,1.9
2018-02-27T02:27:20.710Z,1.9
2018-02-27T02:28:23.120Z,1.9
2018-02-27T02:29:26.123Z,1.9
2018-02-27T02:30:28.558Z,1.9
2018-02-27T02:31:30.949Z,1.9
2018-02-27T02:32:33.363Z,1.9
2018-02-27T02:33:36.393Z,1.9
2018-02-27T02:34:39.074Z,1.8
2018-02-27T02:35:41.522Z,1.8
2018-02-27T02:36:43.927Z,1.8
2018-02-27T02:37:46.343Z,1.8
2018-02-27T02:38:49.051Z,1.8
2018-02-27T02:39:52.346Z,1.8
2018-02-27T02:40:54.768Z,1.7
2018-02-27T02:41:57.193Z,1.7
2018-02-27T02:42:59.598Z,1.7
2018-02-27T02:44:02.021Z,1.7
2018-02-27T02:45:04.436Z,1.7
2018-02-27T02:46:06.841Z,1.7
2018-02-27T02:47:09.545Z,1.8
2018-02-27T02:48:11.958Z,1.8
2018-02-27T02:49:14.380Z,1.8
2018-02-27T02:50:16.796Z,1.8
2018-02-27T02:51:19.496Z,1.8
2018-02-27T02:52:21.910Z,1.8
2018-02-27T02:53:24.333Z,1.8
2018-02-27T02:54:26.745Z,1.8
2018-02-27T02:55:29.164Z,1.8
2018-02-27T02:56:31.576Z,1.8
2018-02-27T02:57:33.998Z,1.8
2018-02-27T02:58:36.412Z,1.8
2018-02-27T02:59:38.823Z,1.8
2018-02-27T03:00:41.241Z,1.8
2018-02-27T03:01:43.657Z,1.8
2018-02-27T03:02:46.065Z,1.8
2018-02-27T03:03:48.481Z,1.7
2018-02-27T03:04:50.889Z,1.7
2018-02-27T03:05:54.181Z,1.7
2018-02-27T03:06:56.901Z,1.7
2018-02-27T03:07:59.305Z,1.7
2018-02-27T03:09:01.725Z,1.6
2018-02-27T03:10:04.153Z,1.6
2018-02-27T03:11:06.851Z,1.6
2018-02-27T03:12:09.262Z,1.6
2018-02-27T03:13:11.968Z,1.6
2018-02-27T03:14:14.378Z,1.6
2018-02-27T03:15:16.781Z,1.5
2018-02-27T03:16:19.198Z,1.5
2018-02-27T03:17:21.613Z,1.5
2018-02-27T03:18:24.322Z,1.4
2018-02-27T03:19:26.737Z,1.4
2018-02-27T03:20:29.151Z,1.4
2018-02-27T03:21:31.573Z,1.3
2018-02-27T03:22:33.989Z,1.3
2018-02-27T03:23:36.408Z,1.2
2018-02-27T03:24:38.815Z,1.2
2018-02-27T03:25:41.225Z,1.2
2018-02-27T03:26:43.929Z,1.2
2018-02-27T03:27:46.346Z,1.1
2018-02-27T03:28:49.040Z,1.1
2018-02-27T03:29:51.452Z,1.1
2018-02-27T03:30:53.852Z,1.1
2018-02-27T03:31:56.274Z,1
2018-02-27T03:32:58.691Z,1
2018-02-27T03:34:01.386Z,1
2018-02-27T03:35:03.804Z,1
2018-02-27T03:36:06.217Z,1
2018-02-27T03:37:08.634Z,1
2018-02-27T03:38:11.055Z,1
2018-02-27T03:39:13.472Z,1
2018-02-27T03:40:15.884Z,1
2018-02-27T03:41:18.310Z,0.9
2018-02-27T03:42:20.712Z,0.9
2018-02-27T03:43:23.410Z,0.9
2018-02-27T03:44:25.836Z,0.9
2018-02-27T03:45:28.231Z,0.9
2018-02-27T03:46:30.645Z,0.9
2018-02-27T03:47:33.074Z,0.8
2018-02-27T03:48:35.486Z,0.8
2018-02-27T03:49:37.897Z,0.8
2018-02-27T03:50:40.319Z,0.8
2018-02-27T03:51:42.739Z,0.8
2018-02-27T03:52:45.731Z,0.8
2018-02-27T03:53:48.157Z,0.8
2018-02-27T03:54:50.560Z,0.8
2018-02-27T03:55:52.973Z,0.8
2018-02-27T03:56:55.693Z,0.8
2018-02-27T03:57:58.381Z,0.8
2018-02-27T03:59:00.803Z,0.8
2018-02-27T04:00:03.215Z,0.8
2018-02-27T04:01:05.917Z,0.8
2018-02-27T04:02:08.327Z,0.8
2018-02-27T04:03:11.315Z,0.8
2018-02-27T04:04:13.740Z,0.8
2018-02-27T04:05:16.149Z,0.8
2018-02-27T04:06:18.557Z,0.8
2018-02-27T04:07:21.549Z,0.7
2018-02-27T04:08:23.955Z,0.7
2018-02-27T04:09:26.379Z,0.7
2018-02-27T04:10:28.791Z,0.7
2018-02-27T04:11:31.204Z,0.7
2018-02-27T04:12:33.619Z,0.7
2018-02-27T04:13:36.037Z,0.6
2018-02-27T04:14:38.454Z,0.6
2018-02-27T04:15:40.865Z,0.6
2018-02-27T04:16:43.609Z,0.6
2018-02-27T04:17:45.984Z,0.6
2018-02-27T04:18:48.415Z,0.6
2018-02-27T04:19:50.818Z,0.5
2018-02-27T04:20:53.232Z,0.6
2018-02-27T04:21:55.639Z,0.6
2018-02-27T04:22:58.051Z,0.6
2018-02-27T04:24:00.479Z,0.6
2018-02-27T04:25:03.495Z,0.7
2018-02-27T04:26:05.868Z,0.7
2018-02-27T04:27:08.586Z,0.7
2018-02-27T04:28:11.270Z,0.7
2018-02-27T04:29:13.680Z,0.8
2018-02-27T04:30:16.094Z,0.8
2018-02-27T04:31:18.505Z,0.8
2018-02-27T04:32:20.919Z,0.9
2018-02-27T04:33:23.345Z,0.9
2018-02-27T04:34:26.063Z,0.9
2018-02-27T04:35:28.765Z,0.9
2018-02-27T04:36:31.178Z,1
2018-02-27T04:37:33.585Z,1
2018-02-27T04:38:36.004Z,1
2018-02-27T04:39:38.730Z,1
2018-02-27T04:40:41.134Z,1
2018-02-27T04:41:43.839Z,1.1
2018-02-27T04:42:46.244Z,1.1
2018-02-27T04:43:48.658Z,1.1
2018-02-27T04:44:51.372Z,1.1
2018-02-27T04:45:53.788Z,1.2
2018-02-27T04:46:56.207Z,1.2
2018-02-27T04:47:58.622Z,1.3
2018-02-27T04:49:01.025Z,1.3
2018-02-27T04:50:03.757Z,1.3
2018-02-27T04:51:06.480Z,1.4
2018-02-27T04:52:09.461Z,1.4
2018-02-27T04:53:11.881Z,1.4
2018-02-27T04:54:14.288Z,1.4
2018-02-27T04:55:16.990Z,1.4
2018-02-27T04:56:19.409Z,1.4
2018-02-27T04:57:21.829Z,1.4
2018-02-27T04:58:24.243Z,1.5
2018-02-27T04:59:26.643Z,1.5
2018-02-27T05:00:29.064Z,1.5
2018-02-27T05:01:31.774Z,1.5
2018-02-27T05:02:34.184Z,1.5
2018-02-27T05:03:36.605Z,1.5
2018-02-27T05:04:39.022Z,1.5
2018-02-27T05:05:41.433Z,1.5
2018-02-27T05:06:43.861Z,1.5
2018-02-27T05:07:46.272Z,1.5
2018-02-27T05:08:48.682Z,1.5
2018-02-27T05:09:51.100Z,1.6
2018-02-27T05:10:53.803Z,1.6
2018-02-27T05:11:56.227Z,1.6
2018-02-27T05:12:58.641Z,1.5
2018-02-27T05:14:01.043Z,1.6
2018-02-27T05:15:03.466Z,1.6
2018-02-27T05:16:06.170Z,1.6
2018-02-27T05:17:08.580Z,1.6
2018-02-27T05:18:11.308Z,1.6
2018-02-27T05:19:14.029Z,1.6
2018-02-27T05:20:16.440Z,1.6
2018-02-27T05:21:18.867Z,1.6
2018-02-27T05:22:21.280Z,1.7
2018-02-27T05:23:23.700Z,1.7
2018-02-27T05:24:26.401Z,1.7
2018-02-27T05:25:28.822Z,1.7
2018-02-27T05:26:31.542Z,1.7
2018-02-27T05:27:34.253Z,1.7
2018-02-27T05:28:36.670Z,1.8
2018-02-27T05:29:39.087Z,1.7
2018-02-27T05:30:42.084Z,1.8
2018-02-27T05:31:44.831Z,1.8
2018-02-27T05:32:47.257Z,1.8
2018-02-27T05:33:49.665Z,1.8
2018-02-27T05:34:52.082Z,1.8
2018-02-27T05:35:54.493Z,1.8
2018-02-27T05:36:56.906Z,1.8
2018-02-27T05:37:59.325Z,1.9
2018-02-27T05:39:01.742Z,1.9
2018-02-27T05:40:04.718Z,2
2018-02-27T05:41:07.141Z,2
2018-02-27T05:42:09.565Z,2
2018-02-27T05:43:11.978Z,2
2018-02-27T05:44:14.397Z,2
2018-02-27T05:45:16.810Z,2
2018-02-27T05:46:19.515Z,2
2018-02-27T05:47:21.938Z,2
2018-02-27T05:48:24.635Z,2
2018-02-27T05:49:27.051Z,2
2018-02-27T05:50:29.463Z,2
2018-02-27T05:51:31.877Z,2
2018-02-27T05:52:34.296Z,2
2018-02-27T05:53:37.001Z,1.9
2018-02-27T05:54:39.697Z,1.9
2018-02-27T05:55:42.400Z,1.9
2018-02-27T05:56:44.827Z,1.9
2018-02-27T05:57:47.237Z,1.9
2018-02-27T05:58:49.645Z,1.9
2018-02-27T05:59:52.078Z,2
2018-02-27T06:00:54.764Z,1.9
2018-02-27T06:01:57.188Z,1.9
2018-02-27T06:02:59.605Z,2
2018-02-27T06:04:02.299Z,2
2018-02-27T06:05:05.304Z,2
2018-02-27T06:06:07.718Z,2
2018-02-27T06:07:10.140Z,2
2018-02-27T06:08:12.543Z,2
2018-02-27T06:09:14.959Z,2
2018-02-27T06:10:17.666Z,2
2018-02-27T06:11:20.081Z,2.1
2018-02-27T06:12:22.493Z,2.1
2018-02-27T06:13:24.909Z,2.1
2018-02-27T06:14:27.319Z,2.1
2018-02-27T06:15:29.737Z,2
2018-02-27T06:16:32.146Z,2
2018-02-27T06:17:34.841Z,2
2018-02-27T06:18:37.265Z,2
2018-02-27T06:19:39.678Z,2
2018-02-27T06:20:42.096Z,2
2018-02-27T06:21:44.522Z,2
2018-02-27T06:22:47.276Z,2
2018-02-27T06:23:49.938Z,2
2018-02-27T06:24:52.354Z,1.9
2018-02-27T06:25:54.769Z,1.9
2018-02-27T06:26:57.184Z,2
2018-02-27T06:27:59.603Z,1.9
2018-02-27T06:29:02.302Z,2
2018-02-27T06:30:04.721Z,2
2018-02-27T06:31:07.136Z,2
2018-02-27T06:32:09.557Z,2
2018-02-27T06:33:11.975Z,2
2018-02-27T06:34:14.383Z,2
2018-02-27T06:35:16.793Z,2
2018-02-27T06:36:19.212Z,1.9
2018-02-27T06:37:21.665Z,2
2018-02-27T06:38:24.047Z,2
2018-02-27T06:39:26.753Z,2
2018-02-27T06:40:29.445Z,2
2018-02-27T06:41:31.860Z,2
2018-02-27T06:42:34.568Z,2
2018-02-27T06:43:37.274Z,2
2018-02-27T06:44:39.698Z,2
2018-02-27T06:45:42.111Z,2.1
2018-02-27T06:46:44.528Z,2.1
2018-02-27T06:47:46.946Z,2.1
2018-02-27T06:48:49.355Z,2.1
2018-02-27T06:49:51.772Z,2.1
2018-02-27T06:50:54.527Z,2.1
2018-02-27T06:51:56.942Z,2.2
2018-02-27T06:52:59.361Z,2.2
2018-02-27T06:54:01.773Z,2.2
2018-02-27T06:55:04.196Z,2.2
2018-02-27T06:56:06.596Z,2.2
2018-02-27T06:57:09.011Z,2.2
2018-02-27T06:58:11.731Z,2.3
2018-02-27T06:59:14.145Z,2.3
2018-02-27T07:00:16.560Z,2.4
2018-02-27T07:01:18.975Z,2.4
2018-02-27T07:02:21.387Z,2.4
2018-02-27T07:03:23.813Z,2.5
2018-02-27T07:04:26.226Z,2.5
2018-02-27T07:05:28.626Z,2.5
2018-02-27T07:06:31.047Z,2.5
2018-02-27T07:07:33.459Z,2.6
2018-02-27T07:08:35.884Z,2.6
2018-02-27T07:09:38.308Z,2.6
2018-02-27T07:10:40.711Z,2.7
2018-02-27T07:11:43.128Z,2.7
2018-02-27T07:12:45.553Z,2.7
2018-02-27T07:13:47.969Z,2.7
2018-02-27T07:14:50.386Z,2.7
2018-02-27T07:15:52.809Z,2.8
2018-02-27T07:16:55.511Z,2.8
2018-02-27T07:17:57.940Z,2.9
2018-02-27T07:19:00.359Z,2.9
2018-02-27T07:20:03.070Z,3
2018-02-27T07:21:05.494Z,3
2018-02-27T07:22:07.908Z,3.1
2018-02-27T07:23:10.321Z,3.2
2018-02-27T07:24:12.727Z,3.2
2018-02-27T07:25:15.152Z,3.3
2018-02-27T07:26:17.562Z,3.3
2018-02-27T07:27:19.988Z,3.4
2018-02-27T07:28:22.686Z,3.4
2018-02-27T07:29:25.406Z,3.4
2018-02-27T07:30:27.824Z,3.5
2018-02-27T07:31:30.232Z,3.5
2018-02-27T07:32:32.657Z,3.6
2018-02-27T07:33:35.092Z,3.6
2018-02-27T07:34:37.798Z,3.7
2018-02-27T07:35:40.213Z,3.7
2018-02-27T07:36:42.922Z,3.7
2018-02-27T07:37:45.630Z,3.8
2018-02-27T07:38:48.063Z,3.8
2018-02-27T07:39:50.480Z,3.8
2018-02-27T07:40:53.178Z,3.9
2018-02-27T07:41:55.603Z,3.9
2018-02-27T07:42:58.022Z,4
2018-02-27T07:44:00.456Z,4
2018-02-27T07:45:02.877Z,4
2018-02-27T07:46:05.288Z,4
2018-02-27T07:47:08.002Z,4
2018-02-27T07:48:10.418Z,4
2018-02-27T07:49:12.837Z,4.1
2018-02-27T07:50:15.253Z,4.1
2018-02-27T07:51:17.665Z,4.2
2018-02-27T07:52:20.082Z,4.3
2018-02-27T07:53:22.509Z,4.4
2018-02-27T07:54:24.923Z,4.5
2018-02-27T07:55:27.348Z,4.6
2018-02-27T07:56:29.760Z,4.7
2018-02-27T07:57:32.186Z,4.9
2018-02-27T07:58:34.904Z,5.1
2018-02-27T07:59:37.321Z,5.2
2018-02-27T08:00:39.744Z,5.3
2018-02-27T08:01:42.164Z,5.5
2018-02-27T08:02:44.869Z,5.7
2018-02-27T08:03:47.305Z,5.8
2018-02-27T08:04:49.717Z,6
2018-02-27T08:05:52.136Z,6.1
2018-02-27T08:06:54.843Z,6.3
2018-02-27T08:07:57.268Z,6.4
2018-02-27T08:08:59.693Z,6.5
2018-02-27T08:10:02.433Z,6.5
2018-02-27T08:11:04.834Z,6.6
2018-02-27T08:12:07.273Z,6.7
2018-02-27T08:13:09.974Z,6.7
2018-02-27T08:14:12.401Z,6.8
2018-02-27T08:15:14.833Z,6.9
2018-02-27T08:16:17.247Z,7.1
2018-02-27T08:17:19.665Z,7.1
2018-02-27T08:18:22.094Z,7.2
2018-02-27T08:19:24.510Z,7.3
2018-02-27T08:20:26.990Z,7.4
2018-02-27T08:21:29.956Z,7.5
2018-02-27T08:22:32.667Z,7.6
2018-02-27T08:23:35.092Z,7.6
2018-02-27T08:24:37.524Z,7.6
2018-02-27T08:25:39.942Z,7.7
2018-02-27T08:26:42.373Z,7.7
2018-02-27T08:27:44.788Z,7.8
2018-02-27T08:28:47.218Z,7.8
2018-02-27T08:29:49.927Z,7.9
2018-02-27T08:30:52.627Z,7.9
2018-02-27T08:31:55.327Z,7.9
2018-02-27T08:32:58.069Z,7.9
2018-02-27T08:34:00.495Z,7.9
2018-02-27T08:35:02.925Z,7.8
2018-02-27T08:36:05.336Z,7.8
2018-02-27T08:37:07.759Z,7.8
2018-02-27T08:38:10.186Z,7.8
2018-02-27T08:39:12.608Z,7.8
2018-02-27T08:40:15.032Z,7.7
2018-02-27T08:41:17.455Z,7.7
2018-02-27T08:42:19.878Z,7.6
2018-02-27T08:43:22.312Z,7.6
2018-02-27T08:44:24.735Z,7.4
2018-02-27T08:45:27.434Z,7.3
2018-02-27T08:46:30.152Z,7.2
2018-02-27T08:47:32.571Z,7.1
2018-02-27T08:48:34.993Z,7
2018-02-27T08:49:37.425Z,6.9
2018-02-27T08:50:39.835Z,6.8
2018-02-27T08:51:42.256Z,6.8
2018-02-27T08:52:44.684Z,6.7
2018-02-27T08:53:47.100Z,6.6
2018-02-27T08:54:49.523Z,6.5
2018-02-27T08:55:52.515Z,6.4
2018-02-27T08:56:54.942Z,6.3
2018-02-27T08:57:57.630Z,6.3
2018-02-27T08:59:00.335Z,6.2
2018-02-27T09:00:03.051Z,6.1
2018-02-27T09:01:05.468Z,6
2018-02-27T09:02:07.893Z,5.9
2018-02-27T09:03:10.313Z,5.8
2018-02-27T09:04:12.740Z,5.8
2018-02-27T09:05:15.165Z,5.7
2018-02-27T09:06:17.590Z,5.6
2018-02-27T09:07:20.284Z,5.6
2018-02-27T09:08:22.705Z,5.6
2018-02-27T09:09:25.411Z,5.6
2018-02-27T09:10:27.825Z,5.5
2018-02-27T09:11:30.253Z,5.5
2018-02-27T09:12:32.961Z,5.5
2018-02-27T09:13:35.379Z,5.5
2018-02-27T09:14:37.850Z,5.4
2018-02-27T09:15:40.222Z,5.4
2018-02-27T09:16:42.930Z,5.4
2018-02-27T09:17:45.355Z,5.4
2018-02-27T09:18:47.776Z,5.4
2018-02-27T09:19:50.197Z,5.4
2018-02-27T09:20:52.622Z,5.4
2018-02-27T09:21:55.038Z,5.4
2018-02-27T09:22:57.452Z,5.4
2018-02-27T09:23:59.877Z,5.4
2018-02-27T09:25:02.587Z,5.4
2018-02-27T09:26:04.993Z,5.4
2018-02-27T09:27:07.426Z,5.4
2018-02-27T09:28:09.847Z,5.5
2018-02-27T09:29:12.266Z,5.6
2018-02-27T09:30:14.696Z,5.6
2018-02-27T09:31:17.152Z,5.7
2018-02-27T09:32:19.539Z,5.8
2018-02-27T09:33:21.961Z,5.9
2018-02-27T09:34:24.373Z,5.9
2018-02-27T09:35:26.789Z,6
2018-02-27T09:36:29.211Z,6.1
2018-02-27T09:37:31.973Z,6.1
2018-02-27T09:38:34.340Z,6.3
2018-02-27T09:39:36.765Z,6.3
2018-02-27T09:40:39.237Z,6.4
2018-02-27T09:41:41.603Z,6.5
2018-02-27T09:42:44.035Z,6.6
2018-02-27T09:43:46.453Z,6.7
2018-02-27T09:44:49.199Z,6.9
2018-02-27T09:45:51.620Z,6.9
2018-02-27T09:46:54.363Z,7.1
2018-02-27T09:47:56.784Z,7.2
2018-02-27T09:48:59.208Z,7.3
2018-02-27T09:50:02.199Z,7.3
2018-02-27T09:51:04.626Z,7.3
2018-02-27T09:52:07.332Z,7.3
2018-02-27T09:53:09.751Z,7.3
2018-02-27T09:54:12.169Z,7.3
2018-02-27T09:55:14.595Z,7.3
2018-02-27T09:56:17.014Z,7.3
2018-02-27T09:57:19.443Z,7.3
2018-02-27T09:58:21.859Z,7.3
2018-02-27T09:59:24.578Z,7.2
2018-02-27T10:00:26.996Z,7.2
2018-02-27T10:01:29.417Z,7.2
2018-02-27T10:02:31.842Z,7.2
2018-02-27T10:03:34.271Z,7.2
2018-02-27T10:04:36.699Z,7.2
2018-02-27T10:05:39.121Z,7.2
2018-02-27T10:06:42.102Z,7.2
2018-02-27T10:07:44.535Z,7.1
2018-02-27T10:08:47.232Z,7.1
2018-02-27T10:09:49.656Z,7.1
2018-02-27T10:10:52.086Z,7
2018-02-27T10:11:54.514Z,6.9
2018-02-27T10:12:56.940Z,6.9
2018-02-27T10:13:59.363Z,6.8
2018-02-27T10:15:01.775Z,6.8
2018-02-27T10:16:04.530Z,6.8
2018-02-27T10:17:06.952Z,6.8
2018-02-27T10:18:09.366Z,6.8
2018-02-27T10:19:11.792Z,6.8
2018-02-27T10:20:14.214Z,6.8
2018-02-27T10:21:16.640Z,6.8
2018-02-27T10:22:19.391Z,6.9
2018-02-27T10:23:21.816Z,6.9
2018-02-27T10:24:24.229Z,7
2018-02-27T10:25:26.656Z,7.2
2018-02-27T10:26:29.081Z,7.3
2018-02-27T10:27:31.595Z,7.4
2018-02-27T10:28:33.941Z,7.6
2018-02-27T10:29:36.659Z,7.7
2018-02-27T10:30:39.104Z,7.8
2018-02-27T10:31:41.502Z,7.9
2018-02-27T10:32:43.922Z,8
2018-02-27T10:33:46.351Z,8
2018-02-27T10:34:49.084Z,8
2018-02-27T10:35:51.510Z,7.9
2018-02-27T10:36:53.937Z,7.9
2018-02-27T10:37:56.648Z,7.9
2018-02-27T10:38:59.068Z,7.9
2018-02-27T10:40:01.499Z,7.8
2018-02-27T10:41:03.925Z,7.8
2018-02-27T10:42:06.348Z,7.7
2018-02-27T10:43:09.345Z,7.7
2018-02-27T10:44:11.774Z,7.6
2018-02-27T10:45:14.195Z,7.6
2018-02-27T10:46:16.621Z,7.5
2018-02-27T10:47:19.322Z,7.4
2018-02-27T10:48:21.744Z,7.4
2018-02-27T10:49:24.182Z,7.3
2018-02-27T10:50:26.603Z,7.3
2018-02-27T10:51:29.017Z,7.3
2018-02-27T10:52:31.448Z,7.2
2018-02-27T10:53:33.863Z,7.2
2018-02-27T10:54:36.583Z,7.2
2018-02-27T10:55:39.002Z,7.2
2018-02-27T10:56:41.430Z,7.3
2018-02-27T10:57:44.147Z,7.3
2018-02-27T10:58:46.566Z,7.3
2018-02-27T10:59:48.990Z,7.3
2018-02-27T11:00:51.695Z,7.3
2018-02-27T11:01:54.127Z,7.3
2018-02-27T11:02:56.556Z,7.3
2018-02-27T11:03:59.270Z,7.3
2018-02-27T11:05:01.692Z,7.2
2018-02-27T11:06:04.128Z,7.2
2018-02-27T11:07:06.552Z,7.1
2018-02-27T11:08:08.979Z,7.1
2018-02-27T11:09:11.403Z,7
2018-02-27T11:10:13.834Z,6.9
2018-02-27T11:11:16.255Z,6.9
2018-02-27T11:12:18.968Z,6.8
2018-02-27T11:13:21.380Z,6.8
2018-02-27T11:14:23.810Z,6.8
2018-02-27T11:15:26.506Z,6.7
2018-02-27T11:16:28.934Z,6.7
2018-02-27T11:17:31.349Z,6.6
2018-02-27T11:18:34.060Z,6.6
2018-02-27T11:19:36.482Z,6.5
2018-02-27T11:20:38.907Z,6.4
2018-02-27T11:21:41.327Z,6.3
2018-02-27T11:22:43.737Z,6.3
2018-02-27T11:23:46.166Z,6.1
2018-02-27T11:24:48.585Z,6
2018-02-27T11:25:51.009Z,5.9
2018-02-27T11:26:53.424Z,5.7
2018-02-27T11:27:55.850Z,5.6
2018-02-27T11:28:58.259Z,5.4
2018-02-27T11:30:00.974Z,5.3
2018-02-27T11:31:03.393Z,5.1
2018-02-27T11:32:05.810Z,5
2018-02-27T11:33:08.233Z,4.9
2018-02-27T11:34:10.657Z,4.8
2018-02-27T11:35:13.072Z,4.8
2018-02-27T11:36:15.542Z,4.7
2018-02-27T11:37:17.916Z,4.7
2018-02-27T11:38:20.337Z,4.6
2018-02-27T11:39:22.770Z,4.6
2018-02-27T11:40:25.183Z,4.6
2018-02-27T11:41:27.600Z,4.6
2018-02-27T11:42:30.020Z,4.6
2018-02-27T11:43:32.438Z,4.6
2018-02-27T11:44:34.858Z,4.6
2018-02-27T11:45:37.278Z,4.7
2018-02-27T11:46:39.686Z,4.7
2018-02-27T11:47:42.112Z,4.7
2018-02-27T11:48:44.827Z,4.8
2018-02-27T11:49:47.542Z,4.8
2018-02-27T11:50:49.957Z,4.9
2018-02-27T11:51:52.664Z,5
2018-02-27T11:52:55.082Z,5.1
2018-02-27T11:53:57.781Z,5.2
2018-02-27T11:55:00.207Z,5.3
2018-02-27T11:56:02.642Z,5.4
2018-02-27T11:57:05.059Z,5.5
2018-02-27T11:58:08.060Z,5.6
2018-02-27T11:59:10.766Z,5.7
2018-02-27T12:00:13.186Z,5.8
2018-02-27T12:01:15.910Z,6
2018-02-27T12:02:18.667Z,6.2
2018-02-27T12:03:21.337Z,6.3
2018-02-27T12:04:23.760Z,6.6
2018-02-27T12:05:26.176Z,6.8
2018-02-27T12:06:28.599Z,7.1
2018-02-27T12:07:31.025Z,7.4
2018-02-27T12:08:33.444Z,7.7
2018-02-27T12:09:35.868Z,8
2018-02-27T12:10:38.889Z,8.3
2018-02-27T12:11:41.314Z,8.5
2018-02-27T12:12:43.740Z,8.8
2018-02-27T12:13:46.209Z,8.9
2018-02-27T12:14:48.580Z,9
2018-02-27T12:15:51.008Z,9.2
2018-02-27T12:16:53.443Z,9.3
2018-02-27T12:17:56.168Z,9.4
2018-02-27T12:18:58.595Z,9.4
2018-02-27T12:20:01.597Z,9.5
2018-02-27T12:21:04.024Z,9.5
2018-02-27T12:22:06.463Z,9.6
2018-02-27T12:23:09.172Z,9.6
2018-02-27T12:24:11.602Z,9.7
2018-02-27T12:25:14.313Z,9.7
2018-02-27T12:26:16.737Z,9.8
2018-02-27T12:27:19.159Z,9.8
2018-02-27T12:28:21.593Z,9.8
2018-02-27T12:29:24.009Z,9.9
2018-02-27T12:30:26.436Z,9.9
2018-02-27T12:31:29.151Z,9.8
2018-02-27T12:32:31.581Z,9.9
2018-02-27T12:33:34.008Z,9.8
2018-02-27T12:34:36.434Z,9.8
2018-02-27T12:35:38.854Z,9.8
2018-02-27T12:36:41.292Z,9.8
2018-02-27T12:37:43.711Z,9.8
2018-02-27T12:38:46.150Z,9.8
2018-02-27T12:39:48.581Z,9.8
2018-02-27T12:40:51.006Z,9.8
2018-02-27T12:41:53.771Z,9.7
2018-02-27T12:42:56.151Z,9.7
2018-02-27T12:43:58.563Z,9.7
2018-02-27T12:45:01.280Z,9.7
2018-02-27T12:46:03.995Z,9.7
2018-02-27T12:47:06.447Z,9.6
2018-02-27T12:48:08.850Z,9.6
2018-02-27T12:49:11.277Z,9.6
2018-02-27T12:50:13.699Z,9.6
2018-02-27T12:51:16.124Z,9.5
2018-02-27T12:52:18.552Z,9.5
2018-02-27T12:53:20.988Z,9.4
2018-02-27T12:54:23.414Z,9.4
2018-02-27T12:55:25.821Z,9.3
2018-02-27T12:56:28.255Z,9.3
2018-02-27T12:57:30.688Z,9.3
2018-02-27T12:58:33.115Z,9.3
2018-02-27T12:59:35.541Z,9.3
2018-02-27T13:00:37.968Z,9.4
2018-02-27T13:01:40.390Z,9.4
2018-02-27T13:02:42.827Z,9.5
2018-02-27T13:03:45.251Z,9.6
2018-02-27T13:04:47.661Z,9.7
2018-02-27T13:05:50.096Z,9.7
2018-02-27T13:06:52.804Z,9.6
2018-02-27T13:07:55.231Z,9.5
2018-02-27T13:08:57.661Z,9.4
2018-02-27T13:10:00.087Z,9.2
2018-02-27T13:11:02.520Z,9
2018-02-27T13:12:04.962Z,9
2018-02-27T13:13:07.411Z,8.8
2018-02-27T13:14:09.838Z,8.8
2018-02-27T13:15:12.294Z,8.7
2018-02-27T13:16:14.725Z,8.7
2018-02-27T13:17:17.192Z,8.9
2018-02-27T13:18:19.949Z,9
2018-02-27T13:19:22.373Z,9
2018-02-27T13:20:24.814Z,9
2018-02-27T13:21:27.547Z,9.1
2018-02-27T13:22:29.984Z,9.1
2018-02-27T13:23:32.698Z,9.2
2018-02-27T13:24:35.138Z,9.3
2018-02-27T13:25:37.579Z,9.4
2018-02-27T13:26:40.026Z,9.5
2018-02-27T13:27:42.487Z,9.7
2018-02-27T13:28:44.919Z,9.8
2018-02-27T13:29:47.353Z,9.9
2018-02-27T13:30:49.811Z,9.9
2018-02-27T13:31:52.241Z,10
2018-02-27T13:32:54.680Z,10.1
2018-02-27T13:33:57.401Z,10.1
2018-02-27T13:34:59.842Z,10.2
2018-02-27T13:36:02.346Z,10.1
2018-02-27T13:37:05.093Z,10.1
2018-02-27T13:38:07.533Z,10.1
2018-02-27T13:39:09.972Z,10.1
2018-02-27T13:40:12.413Z,10.1
2018-02-27T13:41:15.444Z,10
2018-02-27T13:42:17.971Z,10
2018-02-27T13:43:20.460Z,10
2018-02-27T13:44:22.903Z,10
2018-02-27T13:45:25.644Z,10
2018-02-27T13:46:28.075Z,10.1
2018-02-27T13:47:30.526Z,10.1
2018-02-27T13:48:33.257Z,10.2
2018-02-27T13:49:35.992Z,10.2
2018-02-27T13:50:38.417Z,10.2
2018-02-27T13:51:40.869Z,10.1
2018-02-27T13:52:43.322Z,10.2
2018-02-27T13:53:45.759Z,10.1
2018-02-27T13:54:48.492Z,10.1
2018-02-27T13:55:50.925Z,10.1
2018-02-27T13:56:53.374Z,10.1
2018-02-27T13:57:56.170Z,10
2018-02-27T13:58:58.593Z,10
2018-02-27T14:00:01.024Z,10
2018-02-27T14:01:03.464Z,9.9
2018-02-27T14:02:05.889Z,10
2018-02-27T14:03:08.337Z,10
2018-02-27T14:04:10.782Z,10
2018-02-27T14:05:13.206Z,10
2018-02-27T14:06:15.662Z,10
2018-02-27T14:07:18.109Z,10
2018-02-27T14:08:20.537Z,9.9
2018-02-27T14:09:22.964Z,9.9
2018-02-27T14:10:25.397Z,9.9
2018-02-27T14:11:27.833Z,9.8
2018-02-27T14:12:30.276Z,9.9
2018-02-27T14:13:33.003Z,9.8
2018-02-27T14:14:35.431Z,9.8
2018-02-27T14:15:37.893Z,9.8
2018-02-27T14:16:40.330Z,9.8
2018-02-27T14:17:43.063Z,9.7
2018-02-27T14:18:45.489Z,9.6
2018-02-27T14:19:47.916Z,9.7
2018-02-27T14:20:50.644Z,9.7
2018-02-27T14:21:53.072Z,9.7
2018-02-27T14:22:55.492Z,9.7
2018-02-27T14:23:57.915Z,9.8
2018-02-27T14:25:00.342Z,9.8
2018-02-27T14:26:03.079Z,9.8
2018-02-27T14:27:05.509Z,9.7